Time;durP1;ratioP1;P1;durP2;ratioP2;P2;SDS_P1;SDS_P2;PMS_P1;PMS_P2;Temp;Humidity;BMP_temperature;BMP_pressure;BME280_temperature;BME280_humidity;BME280_pressure;Samples;Min_cycle;Max_cycle;Signal;HPM_P1;HPM_P2
2022/10/23 00:01:33;;;;;;;20.75;13.35;;;;;;;9.49;100.00;154912.03;4998019;28;20644;-83
2022/10/23 00:04:09;;;;;;;17.63;13.25;;;;;;;9.41;100.00;154891.50;4993506;28;20574;-82
2022/10/23 00:06:35;;;;;;;18.65;12.75;;;;;;;9.34;100.00;154873.53;5026231;28;20089;-80
2022/10/23 00:09:04;;;;;;;23.58;13.65;;;;;;;9.29;100.00;154860.75;4995237;28;20037;-80
2022/10/23 00:11:30;;;;;;;20.55;12.20;;;;;;;9.16;100.00;154829.97;4991185;28;20038;-81
2022/10/23 00:13:59;;;;;;;17.95;12.30;;;;;;;9.20;100.00;154837.66;5010939;28;20113;-81
2022/10/23 00:16:25;;;;;;;20.48;13.70;;;;;;;9.32;100.00;154868.41;4993682;28;20037;-83
2022/10/23 00:18:51;;;;;;;19.55;13.27;;;;;;;9.37;100.00;154881.25;4988068;28;20034;-80
2022/10/23 00:21:17;;;;;;;16.98;12.18;;;;;;;9.31;100.00;154865.88;4994603;28;20286;-81
2022/10/23 00:23:44;;;;;;;16.70;12.60;;;;;;;9.30;100.00;154864.56;5003625;28;20029;-82
2022/10/23 00:26:14;;;;;;;18.70;13.75;;;;;;;9.24;100.00;154849.19;4997275;28;20029;-82
2022/10/23 00:28:42;;;;;;;20.95;14.05;;;;;;;9.12;100.00;154819.72;4997761;28;20033;-81
2022/10/23 00:31:08;;;;;;;20.23;14.63;;;;;;;9.13;100.00;154820.97;4996340;28;20053;-81
2022/10/23 00:33:38;;;;;;;18.58;13.98;;;;;;;9.08;100.00;154809.47;5009159;28;20025;-81
2022/10/23 00:36:05;;;;;;;26.35;14.10;;;;;;;9.03;100.00;154795.38;5011084;28;20642;-83
2022/10/23 00:38:31;;;;;;;26.15;15.10;;;;;;;9.00;100.00;154788.94;4983807;28;20507;-83
2022/10/23 00:40:57;;;;;;;29.02;14.90;;;;;;;8.94;100.00;154774.84;4996421;28;20125;-85
2022/10/23 00:43:27;;;;;;;23.95;14.98;;;;;;;8.89;100.00;154760.75;5005749;28;20129;-81
2022/10/23 00:45:53;;;;;;;24.40;15.30;;;;;;;8.82;100.00;154744.09;4996447;28;20030;-83
2022/10/23 00:48:19;;;;;;;18.85;14.40;;;;;;;8.79;100.00;154735.13;4993618;28;20042;-83
2022/10/23 00:50:46;;;;;;;19.70;13.13;;;;;;;8.80;100.00;154737.66;4997690;28;20041;-84
2022/10/23 00:53:15;;;;;;;22.15;13.80;;;;;;;8.80;100.00;154737.66;5008026;28;20153;-84
2022/10/23 00:55:45;;;;;;;17.70;14.70;;;;;;;8.75;100.00;154727.44;5011647;28;20046;-81
2022/10/23 00:58:13;;;;;;;25.50;16.42;;;;;;;8.82;100.00;154744.09;5031649;28;20471;-83
2022/10/23 01:00:53;;;;;;;25.85;16.55;;;;;;;8.77;100.00;154731.28;5015542;28;20037;-83
2022/10/23 01:03:22;;;;;;;21.42;15.18;;;;;;;8.76;100.00;154730.00;4994395;28;20388;-82
2022/10/23 01:05:55;;;;;;;23.15;15.13;;;;;;;8.74;100.00;154724.88;4998671;28;20057;-82
2022/10/23 01:09:11;;;;;;;25.30;15.43;;;;;;;8.69;100.00;154712.06;4993310;28;20049;-82
2022/10/23 01:11:47;;;;;;;22.77;15.52;;;;;;;8.69;100.00;154712.06;4986130;28;20042;-83
2022/10/23 01:14:29;;;;;;;18.45;14.32;;;;;;;8.67;100.00;154705.66;4994123;28;20038;-82
2022/10/23 01:17:38;;;;;;;57.63;16.95;;;;;;;8.64;100.00;154699.22;5019431;28;20690;-83
2022/10/23 01:20:44;;;;;;;29.95;16.05;;;;;;;8.63;100.00;154695.44;5001419;28;20459;-82
2022/10/23 01:23:21;;;;;;;25.55;16.35;;;;;;;8.63;100.00;154696.69;4994695;28;20034;-81
2022/10/23 01:26:10;;;;;;;28.85;18.30;;;;;;;8.70;100.00;154714.66;4992569;28;20393;-81
2022/10/23 01:28:48;;;;;;;24.85;16.70;;;;;;;8.74;100.00;154723.63;5004446;28;20033;-82
2022/10/23 01:31:22;;;;;;;24.60;16.90;;;;;;;8.77;100.00;154732.53;5011612;28;20053;-81
2022/10/23 01:33:54;;;;;;;24.45;18.05;;;;;;;8.83;100.00;154745.38;5021369;28;20056;-83
2022/10/23 01:36:28;;;;;;;17.80;15.90;;;;;;;8.91;100.00;154765.88;5013050;28;20034;-81
2022/10/23 01:39:07;;;;;;;21.52;17.02;;;;;;;8.91;100.00;154765.88;5012760;28;20038;-84
2022/10/23 01:41:49;;;;;;;23.30;16.80;;;;;;;8.94;100.00;154774.84;5017396;28;20038;-83
2022/10/23 01:44:31;;;;;;;24.67;15.82;;;;;;;8.85;100.00;154750.50;4997577;28;20045;-83
2022/10/23 01:46:57;;;;;;;37.25;16.27;;;;;;;8.78;100.00;154733.84;4987936;28;20042;-82
2022/10/23 01:49:27;;;;;;;23.80;15.45;;;;;;;8.65;100.00;154701.81;4995911;28;20038;-83
2022/10/23 01:51:58;;;;;;;58.10;16.65;;;;;;;8.72;100.00;154719.78;4982183;28;20124;-83
2022/10/23 01:54:34;;;;;;;27.55;15.32;;;;;;;8.72;100.00;154718.44;4987403;28;20410;-83
2022/10/23 01:57:02;;;;;;;24.77;16.27;;;;;;;8.69;100.00;154710.78;4983666;28;20337;-83
2022/10/23 01:59:35;;;;;;;21.42;16.55;;;;;;;8.72;100.00;154718.44;5013415;28;20045;-82
2022/10/23 02:02:04;;;;;;;20.38;14.80;;;;;;;8.69;100.00;154710.78;4996430;28;20036;-81
2022/10/23 02:04:35;;;;;;;23.63;15.75;;;;;;;8.72;100.00;154718.44;4992818;28;20041;-83
2022/10/23 02:07:01;;;;;;;22.48;15.23;;;;;;;8.73;100.00;154722.31;4992925;28;20104;-84
2022/10/23 02:09:27;;;;;;;23.35;15.57;;;;;;;8.80;100.00;154738.97;5013076;28;20049;-84
2022/10/23 02:12:06;;;;;;;18.80;14.65;;;;;;;8.83;100.00;154745.38;5010188;28;20137;-84
2022/10/23 02:14:49;;;;;;;18.52;14.38;;;;;;;8.76;100.00;154730.00;5001912;28;20037;-81
2022/10/23 02:17:25;;;;;;;23.98;14.95;;;;;;;8.66;100.00;154703.09;5013713;28;20412;-82
2022/10/23 02:19:58;;;;;;;24.55;14.23;;;;;;;8.61;100.00;154691.56;5011891;28;20038;-83
2022/10/23 02:22:27;;;;;;;20.88;14.82;;;;;;;8.62;100.00;154694.09;4996359;28;20038;-83
2022/10/23 02:25:08;;;;;;;25.20;15.85;;;;;;;8.67;100.00;154705.66;5003590;28;20029;-82
2022/10/23 02:27:41;;;;;;;23.00;16.20;;;;;;;8.68;100.00;154708.22;5019445;28;20041;-82
2022/10/23 02:30:09;;;;;;;27.80;16.52;;;;;;;8.62;100.00;154694.09;5011607;28;20049;-82
2022/10/23 02:32:39;;;;;;;21.73;15.60;;;;;;;8.58;100.00;154683.88;4997161;28;20041;-83
2022/10/23 02:35:06;;;;;;;21.95;15.38;;;;;;;8.51;100.00;154665.94;5005203;28;20037;-82
2022/10/23 02:37:33;;;;;;;23.05;15.15;;;;;;;8.47;100.00;154656.94;4982233;28;20042;-82
2022/10/23 02:40:00;;;;;;;28.42;15.82;;;;;;;8.45;100.00;154651.81;4995974;28;20045;-84
2022/10/23 02:42:42;;;;;;;21.83;15.10;;;;;;;8.44;100.00;154647.97;5011523;28;20034;-81
2022/10/23 02:45:14;;;;;;;24.67;14.23;;;;;;;8.36;100.00;154630.03;4999269;28;20071;-81
2022/10/23 02:47:56;;;;;;;24.10;14.00;;;;;;;8.35;100.00;154626.19;5011874;28;20083;-84
2022/10/23 02:50:47;;;;;;;22.20;13.82;;;;;;;8.33;100.00;154622.34;5011041;28;20907;-80
2022/10/23 02:53:41;;;;;;;17.92;13.82;;;;;;;8.31;100.00;154617.22;5013530;28;20042;-82
2022/10/23 02:56:18;;;;;;;22.42;13.90;;;;;;;8.25;100.00;154600.53;5007129;28;20097;-82
2022/10/23 02:58:55;;;;;;;17.85;13.65;;;;;;;8.23;100.00;154595.41;5014990;28;20029;-83
2022/10/23 03:01:27;;;;;;;21.67;14.02;;;;;;;8.21;100.00;154590.28;5024908;28;20042;-83
2022/10/23 03:03:59;;;;;;;24.37;14.87;;;;;;;8.17;100.00;154582.63;4996548;28;20065;-83
2022/10/23 03:06:25;;;;;;;20.60;13.98;;;;;;;8.19;100.00;154586.44;5001893;28;20378;-83
2022/10/23 03:08:59;;;;;;;22.10;13.88;;;;;;;8.21;100.00;154590.28;5029840;28;20060;-84
2022/10/23 03:11:25;;;;;;;23.85;14.55;;;;;;;8.17;100.00;154581.31;5012014;28;20064;-83
2022/10/23 03:13:50;;;;;;;18.38;13.75;;;;;;;8.11;100.00;154565.97;5016989;28;20515;-84
2022/10/23 03:16:16;;;;;;;23.90;15.52;;;;;;;8.05;100.00;154550.59;5012713;28;20117;-83
2022/10/23 03:18:49;;;;;;;20.77;14.00;;;;;;;8.04;100.00;154549.28;5000952;28;20037;-81
2022/10/23 03:21:16;;;;;;;21.38;14.25;;;;;;;8.02;100.00;154544.16;4997612;28;20592;-83
2022/10/23 03:23:41;;;;;;;18.65;13.15;;;;;;;8.07;100.00;154557.00;4997075;28;20061;-81
2022/10/23 03:26:07;;;;;;;18.65;13.35;;;;;;;8.06;100.00;154554.47;4976247;28;20124;-82
2022/10/23 03:28:38;;;;;;;23.70;14.20;;;;;;;8.06;100.00;154553.16;4979321;28;20034;-84
2022/10/23 03:31:04;;;;;;;20.33;13.50;;;;;;;8.06;100.00;154553.16;4985453;28;20045;-81
2022/10/23 03:33:30;;;;;;;19.98;13.43;;;;;;;8.05;100.00;154551.88;5004360;28;20040;-82
2022/10/23 03:36:04;;;;;;;19.67;12.73;;;;;;;7.95;100.00;154526.28;4997389;28;20690;-83
2022/10/23 03:38:31;;;;;;;22.40;13.63;;;;;;;8.05;100.00;154550.59;4995117;28;20042;-84
2022/10/23 03:40:57;;;;;;;16.65;13.15;;;;;;;7.95;100.00;154526.28;4994978;28;20042;-83
2022/10/23 03:43:22;;;;;;;18.30;14.18;;;;;;;7.97;100.00;154532.66;5010653;28;20060;-83
2022/10/23 03:45:49;;;;;;;19.83;13.88;;;;;;;8.08;100.00;154558.25;5000053;28;20035;-82
2022/10/23 03:48:15;;;;;;;18.90;12.82;;;;;;;8.04;100.00;154548.03;5002949;28;20187;-81
2022/10/23 03:50:43;;;;;;;16.85;13.02;;;;;;;8.07;100.00;154557.00;5001797;28;20041;-82
2022/10/23 03:53:09;;;;;;;16.77;12.27;;;;;;;8.00;100.00;154539.06;5002881;28;20042;-84
2022/10/23 03:55:35;;;;;;;13.90;11.63;;;;;;;8.01;100.00;154541.63;4997922;28;20105;-83
2022/10/23 03:58:00;;;;;;;13.63;11.98;;;;;;;7.99;100.00;154537.78;5012744;28;20034;-82
2022/10/23 04:00:26;;;;;;;14.38;11.60;;;;;;;8.00;100.00;154539.06;5013644;28;20112;-82
2022/10/23 04:02:52;;;;;;;13.07;11.65;;;;;;;8.02;100.00;154544.16;5002103;28;20044;-81
2022/10/23 04:05:18;;;;;;;13.35;11.18;;;;;;;8.04;100.00;154548.03;5014917;28;20813;-82
2022/10/23 04:07:52;;;;;;;15.43;10.65;;;;;;;7.99;100.00;154537.78;5029949;28;20040;-82
2022/10/23 04:10:18;;;;;;;15.27;11.18;;;;;;;7.88;100.00;154509.63;4997983;28;21525;-82
2022/10/23 04:12:43;;;;;;;15.20;10.95;;;;;;;7.91;100.00;154516.00;5030961;28;20531;-82
2022/10/23 04:15:10;;;;;;;11.95;10.75;;;;;;;7.77;100.00;154481.44;5018703;28;20057;-82
2022/10/23 04:17:36;;;;;;;11.88;9.73;;;;;;;7.85;100.00;154500.63;5003987;28;20185;-81
2022/10/23 04:20:04;;;;;;;20.38;10.75;;;;;;;7.83;100.00;154496.78;4995292;28;20073;-83
2022/10/23 04:22:29;;;;;;;14.38;10.98;;;;;;;7.82;100.00;154492.94;5027741;28;20567;-83
2022/10/23 04:24:55;;;;;;;17.00;11.02;;;;;;;7.83;100.00;154495.53;5014925;28;20057;-84
2022/10/23 04:27:21;;;;;;;15.93;12.32;;;;;;;7.82;100.00;154492.94;5003774;28;20042;-83
2022/10/23 04:29:48;;;;;;;21.63;11.80;;;;;;;7.86;100.00;154503.22;5041322;28;20538;-81
2022/10/23 04:32:13;;;;;;;15.90;11.80;;;;;;;7.86;100.00;154503.22;5000018;28;20025;-83
2022/10/23 04:34:42;;;;;;;15.65;12.35;;;;;;;7.85;100.00;154500.63;5014186;28;20117;-83
2022/10/23 04:37:08;;;;;;;15.70;12.95;;;;;;;7.90;100.00;154513.47;5033283;28;20527;-84
2022/10/23 04:39:33;;;;;;;17.15;11.15;;;;;;;7.85;100.00;154500.63;4998449;28;20037;-83
2022/10/23 04:41:59;;;;;;;15.90;10.43;;;;;;;7.74;100.00;154475.06;5001214;28;20467;-83
2022/10/23 04:44:24;;;;;;;11.95;10.43;;;;;;;7.74;100.00;154475.06;4994248;28;20038;-84
2022/10/23 04:46:50;;;;;;;13.18;11.77;;;;;;;7.79;100.00;154487.81;5016281;28;20071;-84
2022/10/23 04:49:16;;;;;;;11.65;10.45;;;;;;;7.78;100.00;154485.28;5015932;28;20046;-82
2022/10/23 04:51:56;;;;;;;23.23;11.07;;;;;;;7.72;100.00;154469.94;5011315;28;20037;-82
2022/10/23 04:54:42;;;;;;;26.88;11.43;;;;;;;7.71;100.00;154467.34;4983995;28;20046;-85
2022/10/23 04:57:22;;;;;;;24.60;14.13;;;;;;;7.75;100.00;154477.59;5000707;28;20124;-84
2022/10/23 05:00:00;;;;;;;23.92;12.65;;;;;;;7.91;100.00;154516.00;4997851;28;20065;-85
2022/10/23 05:02:26;;;;;;;18.38;13.85;;;;;;;7.84;100.00;154499.38;5000709;28;20065;-83
2022/10/23 05:04:53;;;;;;;41.35;15.25;;;;;;;7.92;100.00;154519.84;5011805;28;20042;-84
2022/10/23 05:07:35;;;;;;;16.27;13.57;;;;;;;7.97;100.00;154531.41;4999605;28;20127;-82
2022/10/23 05:10:09;;;;;;;31.23;14.18;;;;;;;7.96;100.00;154530.09;5015227;28;20033;-83
2022/10/23 05:12:46;;;;;;;22.80;13.07;;;;;;;7.96;100.00;154530.09;5011042;28;20041;-83
2022/10/23 05:15:12;;;;;;;24.88;14.88;;;;;;;7.95;100.00;154526.28;5013789;28;20041;-84
2022/10/23 05:17:42;;;;;;;16.13;13.68;;;;;;;7.93;100.00;154522.44;4998459;28;20042;-82
2022/10/23 05:20:14;;;;;;;19.98;14.07;;;;;;;7.88;100.00;154508.34;4999539;28;20551;-83
2022/10/23 05:22:43;;;;;;;16.77;13.03;;;;;;;7.85;100.00;154500.63;5012414;28;20044;-82
2022/10/23 05:25:12;;;;;;;20.63;13.10;;;;;;;7.97;100.00;154531.41;5016508;28;20038;-83
2022/10/23 05:27:41;;;;;;;17.02;13.05;;;;;;;7.90;100.00;154513.47;5002262;28;20116;-82
2022/10/23 05:30:10;;;;;;;15.73;12.40;;;;;;;7.76;100.00;154480.16;5004926;28;20128;-82
2022/10/23 05:32:37;;;;;;;14.95;12.13;;;;;;;7.75;100.00;154476.31;5008234;28;20033;-82
2022/10/23 05:35:08;;;;;;;15.48;11.68;;;;;;;7.68;100.00;154458.38;5015617;28;20042;-82
2022/10/23 05:37:38;;;;;;;13.95;11.15;;;;;;;7.65;100.00;154452.00;4995621;28;20030;-84
2022/10/23 05:40:12;;;;;;;18.88;12.13;;;;;;;7.63;100.00;154446.88;4993279;28;20077;-81
2022/10/23 05:42:39;;;;;;;16.65;11.60;;;;;;;7.54;100.00;154425.09;4998375;28;20551;-81
2022/10/23 05:45:05;;;;;;;18.17;12.60;;;;;;;7.69;100.00;154460.97;5016485;28;20117;-82
2022/10/23 05:47:44;;;;;;;18.48;12.77;;;;;;;7.69;100.00;154460.97;5005843;28;20496;-82
2022/10/23 05:50:21;;;;;;;21.85;14.23;;;;;;;7.75;100.00;154476.31;4999936;28;20041;-83
2022/10/23 05:53:06;;;;;;;20.58;14.38;;;;;;;7.87;100.00;154505.75;5017290;28;20029;-83
2022/10/23 05:55:50;;;;;;;24.38;15.00;;;;;;;7.99;100.00;154537.78;4995534;28;20041;-81
2022/10/23 05:58:35;;;;;;;21.77;15.68;;;;;;;8.09;100.00;154562.13;5017445;28;20093;-82
2022/10/23 06:01:13;;;;;;;27.52;15.82;;;;;;;8.08;100.00;154558.25;4991395;28;20037;-80
2022/10/23 06:03:58;;;;;;;29.67;16.27;;;;;;;8.15;100.00;154576.22;5006572;28;20301;-81
2022/10/23 06:06:33;;;;;;;26.38;15.70;;;;;;;8.09;100.00;154560.84;5012317;28;20027;-82
2022/10/23 06:08:58;;;;;;;23.20;15.60;;;;;;;8.14;100.00;154574.94;4999616;28;20037;-82
2022/10/23 06:11:25;;;;;;;23.48;15.70;;;;;;;8.17;100.00;154581.31;5001978;28;20080;-83
2022/10/23 06:13:59;;;;;;;25.08;15.45;;;;;;;8.18;100.00;154583.91;4998137;28;20116;-83
2022/10/23 06:16:25;;;;;;;22.42;14.70;;;;;;;8.19;100.00;154587.75;4995931;28;20037;-82
2022/10/23 06:18:52;;;;;;;25.23;14.45;;;;;;;8.16;100.00;154578.78;4998366;28;20038;-83
2022/10/23 06:21:18;;;;;;;22.33;14.13;;;;;;;8.17;100.00;154582.63;5002722;28;20045;-84
2022/10/23 06:23:47;;;;;;;18.98;13.55;;;;;;;8.14;100.00;154573.66;5029929;28;20030;-84
2022/10/23 06:44:46;;;;;;;19.35;13.27;;;;;;;8.21;100.00;154590.28;5074837;27;20883;-81
2022/10/23 06:47:38;;;;;;;15.90;12.32;;;;;;;8.19;100.00;154586.44;5095124;27;21174;-74
2022/10/23 06:50:24;;;;;;;15.07;12.05;;;;;;;8.19;100.00;154586.44;5049374;28;20063;-73
2022/10/23 06:52:53;;;;;;;16.23;12.63;;;;;;;8.11;100.00;154565.97;5035220;28;20037;-73
2022/10/23 06:55:20;;;;;;;20.10;12.95;;;;;;;8.09;100.00;154560.84;5043918;28;20091;-74
2022/10/23 06:57:46;;;;;;;17.73;12.82;;;;;;;8.09;100.00;154562.13;5031423;28;20401;-74
2022/10/23 07:00:12;;;;;;;17.55;12.43;;;;;;;8.07;100.00;154555.72;5046832;28;20041;-74
2022/10/23 07:02:48;;;;;;;16.50;11.80;;;;;;;8.09;100.00;154562.13;5045005;28;20044;-74
2022/10/23 07:05:14;;;;;;;18.63;12.07;;;;;;;8.13;100.00;154571.09;5027282;28;20063;-74
2022/10/23 07:07:41;;;;;;;13.77;11.82;;;;;;;8.18;100.00;154583.91;5032330;28;20041;-74
2022/10/23 07:10:08;;;;;;;17.15;12.48;;;;;;;8.16;100.00;154580.06;5020120;28;20105;-74
2022/10/23 07:12:42;;;;;;;16.73;12.90;;;;;;;8.20;100.00;154589.03;5030564;28;20037;-74
2022/10/23 07:15:31;;;;;;;16.88;13.45;;;;;;;8.25;100.00;154601.84;5011686;28;20036;-74
2022/10/23 07:17:57;;;;;;;21.60;14.07;;;;;;;8.30;100.00;154614.63;5041757;28;20036;-74
2022/10/23 07:20:25;;;;;;;19.90;13.60;;;;;;;8.38;100.00;154635.16;5051928;28;20042;-74
2022/10/23 07:22:53;;;;;;;18.52;14.30;;;;;;;8.47;100.00;154656.94;5054564;28;20040;-74
2022/10/23 07:25:25;;;;;;;28.23;14.07;;;;;;;8.55;100.00;154677.47;5039206;28;20146;-74
2022/10/23 07:27:54;;;;;;;15.88;12.70;;;;;;;8.62;100.00;154692.84;5036601;28;20516;-74
2022/10/23 07:30:21;;;;;;;20.10;14.07;;;;;;;8.72;100.00;154719.78;5034893;28;20048;-74
2022/10/23 07:32:50;;;;;;;17.55;13.15;;;;;;;8.72;100.00;154719.78;5042026;28;20043;-73
2022/10/23 07:35:39;;;;;;;20.05;13.07;;;;;;;8.83;100.00;154746.66;5046555;28;20073;-73
2022/10/23 07:38:09;;;;;;;23.77;12.93;;;;;;;8.96;100.00;154779.97;5060303;28;20033;-73
2022/10/23 07:40:39;;;;;;;18.67;12.18;;;;;;;9.04;100.00;154799.22;5050284;28;20517;-73
2022/10/23 07:43:07;;;;;;;16.15;11.82;;;;;;;9.12;100.00;154818.44;5050078;28;20037;-73
2022/10/23 07:45:33;;;;;;;22.63;13.57;;;;;;;9.22;100.00;154842.78;5034702;28;20045;-73
2022/10/23 07:48:05;;;;;;;18.80;12.23;;;;;;;9.38;100.00;154882.50;5048393;28;20113;-73
2022/10/23 07:50:46;;;;;;;24.10;13.32;;;;;;;9.43;100.00;154895.34;5024538;28;20044;-73
2022/10/23 07:53:17;;;;;;;17.17;11.02;;;;;;;9.59;100.00;154935.06;5040965;28;20035;-74
2022/10/23 07:55:54;;;;;;;16.85;11.20;;;;;;;9.64;100.00;154949.16;5047174;28;20033;-73
2022/10/23 07:58:21;;;;;;;21.27;11.23;;;;;;;9.78;100.00;154982.56;5043579;28;20048;-73
2022/10/23 08:01:12;;;;;;;17.40;11.05;;;;;;;9.88;100.00;155008.19;5037029;28;20549;-73
2022/10/23 08:03:39;;;;;;;13.60;11.02;;;;;;;9.92;100.00;155018.44;5033882;28;20025;-72
2022/10/23 08:06:05;;;;;;;14.13;10.10;;;;;;;10.02;100.00;155044.09;5023777;28;20063;-74
2022/10/23 08:08:31;;;;;;;16.02;9.90;;;;;;;10.02;100.00;155042.78;5010019;28;20072;-74
2022/10/23 08:11:01;;;;;;;13.27;10.73;;;;;;;10.16;100.00;155077.44;5039756;28;20041;-73
2022/10/23 08:13:32;;;;;;;15.35;10.60;;;;;;;10.24;100.00;155099.22;5017798;28;20749;-73
2022/10/23 08:16:02;;;;;;;17.67;10.90;;;;;;;10.28;100.00;155109.53;5022799;28;20412;-73
2022/10/23 08:18:48;;;;;;;14.57;9.35;;;;;;;10.32;100.00;155118.50;5037246;28;20045;-74
2022/10/23 08:21:16;;;;;;;15.88;9.68;;;;;;;10.53;100.00;155171.13;5024498;28;20495;-72
2022/10/23 08:23:43;;;;;;;15.48;9.23;;;;;;;10.64;100.00;155198.03;5025790;28;20034;-74
2022/10/23 08:26:10;;;;;;;12.23;9.15;;;;;;;10.69;100.00;155210.88;5036109;28;20034;-73
2022/10/23 08:28:36;;;;;;;13.00;9.68;;;;;;;10.91;100.00;155266.06;5034378;28;20033;-73
2022/10/23 08:31:07;;;;;;;13.40;8.38;;;;;;;10.99;100.00;155286.59;5007113;28;20170;-73
2022/10/23 08:33:33;;;;;;;11.57;8.65;;;;;;;11.06;100.00;155304.56;5024861;28;20076;-73
2022/10/23 08:35:59;;;;;;;13.88;7.70;;;;;;;11.20;100.00;155337.94;5021599;28;20458;-74
2022/10/23 08:38:30;;;;;;;15.35;9.00;;;;;;;11.29;100.00;155362.31;5036819;28;20080;-74
2022/10/23 08:41:00;;;;;;;14.05;8.70;;;;;;;11.43;100.00;155395.69;5034976;28;20483;-74
2022/10/23 08:44:18;;;;;;;10.57;7.75;;;;;;;11.43;100.00;155395.69;5039856;28;20041;-74
2022/10/23 08:46:48;;;;;;;16.20;8.20;;;;;;;11.39;100.00;155386.69;5038633;28;20028;-74
2022/10/23 08:49:46;;;;;;;10.85;7.47;;;;;;;11.41;100.00;155391.81;5036993;28;20118;-73
2022/10/23 08:52:39;;;;;;;13.85;7.20;;;;;;;11.43;100.00;155397.00;5034647;28;20033;-73
2022/10/23 08:55:34;;;;;;;12.13;7.93;;;;;;;11.50;100.00;155413.66;5040057;28;20048;-74
2022/10/23 08:58:16;;;;;;;14.43;7.50;;;;;;;11.59;100.00;155435.50;5030446;28;20143;-75
2022/10/23 09:00:43;;;;;;;12.07;7.15;;;;;;;11.72;100.00;155468.88;5003785;28;20044;-74
2022/10/23 09:03:11;;;;;;;11.80;6.80;;;;;;;11.84;100.00;155499.66;5034339;28;20033;-74
2022/10/23 09:06:07;;;;;;;9.40;7.45;;;;;;;11.88;100.00;155508.66;5041806;28;20561;-73
2022/10/23 09:08:48;;;;;;;10.73;6.10;;;;;;;11.90;100.00;155512.56;5050313;28;20029;-74
2022/10/23 09:11:26;;;;;;;10.07;6.80;;;;;;;11.97;100.00;155530.56;5032772;28;20539;-73
2022/10/23 09:14:23;;;;;;;8.50;6.53;;;;;;;11.98;100.00;155533.09;5022286;28;20378;-74
2022/10/23 09:17:28;;;;;;;12.25;6.45;;;;;;;12.05;100.00;155552.41;5040314;28;20033;-74
2022/10/23 09:20:06;;;;;;;11.98;6.70;;;;;;;12.06;100.00;155554.94;5035851;28;20062;-73
2022/10/23 09:22:34;;;;;;;11.88;6.80;;;;;;;12.18;100.00;155583.19;5036752;28;20448;-73
2022/10/23 09:24:59;;;;;;;9.80;6.50;;;;;;;12.19;100.00;155587.06;5040551;28;20400;-73
2022/10/23 09:27:25;;;;;;;12.23;6.55;;;;;;;12.28;100.00;155608.84;5042037;28;20037;-74
2022/10/23 09:29:53;;;;;;;11.95;6.68;;;;;;;12.30;100.00;155614.03;5006814;28;20044;-74
2022/10/23 09:32:31;;;;;;;12.63;6.90;;;;;;;12.38;100.00;155634.56;5050919;28;20632;-74
2022/10/23 09:34:56;;;;;;;9.70;6.90;;;;;;;12.37;100.00;155631.97;5040804;28;20033;-74
2022/10/23 09:37:25;;;;;;;13.25;6.88;;;;;;;12.49;100.00;155660.25;5027546;28;20394;-72
2022/10/23 09:40:16;;;;;;;10.52;6.60;;;;;;;12.53;100.00;155670.56;5041694;28;20087;-75
2022/10/23 09:42:52;;;;;;;13.50;7.60;;;;;;;12.69;100.00;155710.34;5021318;28;20045;-74
2022/10/23 09:45:23;;;;;;;14.88;7.18;;;;;;;12.72;100.00;155718.09;5025694;28;20043;-73
2022/10/23 09:47:49;;;;;;;13.85;7.47;;;;;;;12.70;100.00;155714.22;5016515;28;20071;-73
2022/10/23 09:50:20;;;;;;;10.57;5.93;;;;;;;12.77;100.00;155732.22;5035348;28;20118;-73
2022/10/23 09:52:52;;;;;;;10.13;6.00;;;;;;;12.80;100.00;155738.63;5038443;28;20451;-74
2022/10/23 09:55:22;;;;;;;12.77;5.53;;;;;;;12.85;100.00;155752.75;5026025;28;20387;-73
2022/10/23 09:57:48;;;;;;;13.20;5.85;;;;;;;12.97;100.00;155782.28;5044013;28;20142;-74
2022/10/23 10:00:14;;;;;;;10.43;5.75;;;;;;;13.01;100.00;155791.28;5026170;28;20108;-74
2022/10/23 10:02:41;;;;;;;10.25;6.28;;;;;;;13.08;100.00;155809.28;5004532;28;20581;-73
2022/10/23 10:05:29;;;;;;;9.50;5.72;;;;;;;13.17;100.00;155832.41;5034568;28;21097;-73
2022/10/23 10:08:18;;;;;;;11.55;6.20;;;;;;;13.18;100.00;155834.97;5035077;28;20071;-74
2022/10/23 10:11:04;;;;;;;13.80;6.13;;;;;;;13.20;100.00;155838.81;5035043;28;20494;-74
2022/10/23 10:13:32;;;;;;;12.55;6.07;;;;;;;13.35;100.00;155877.41;5029252;28;20040;-73
2022/10/23 10:16:25;;;;;;;14.38;5.82;;;;;;;13.37;100.00;155881.28;5020573;28;20532;-74
2022/10/23 10:19:22;;;;;;;12.60;5.90;;;;;;;13.51;100.00;155917.28;5030725;28;20147;-73
2022/10/23 10:21:54;;;;;;;11.30;5.60;;;;;;;13.53;100.00;155922.44;5007860;28;20036;-75
2022/10/23 10:24:34;;;;;;;15.38;6.55;;;;;;;13.59;100.00;155937.84;5038787;28;20037;-73
2022/10/23 10:27:14;;;;;;;15.52;6.38;;;;;;;13.55;100.00;155927.56;5042167;28;20033;-74
2022/10/23 10:30:09;;;;;;;10.82;5.65;;;;;;;13.62;100.00;155944.28;5023646;28;20086;-73
2022/10/23 10:32:58;;;;;;;9.25;5.60;;;;;;;13.76;100.00;155978.97;5039863;28;20748;-75
2022/10/23 10:35:23;;;;;;;11.13;6.15;;;;;;;13.86;100.00;156004.66;5057864;28;20033;-75
2022/10/23 10:38:08;;;;;;;13.40;6.05;;;;;;;13.97;100.00;156032.94;5037189;28;20054;-75
2022/10/23 10:40:39;;;;;;;11.13;6.18;;;;;;;14.04;100.00;156049.69;5044605;28;20049;-75
2022/10/23 10:43:14;;;;;;;13.60;5.60;;;;;;;14.10;100.00;156063.84;5038709;28;20034;-74
2022/10/23 10:45:46;;;;;;;11.77;5.88;;;;;;;14.15;100.00;156076.72;5039904;28;20048;-74
2022/10/23 10:48:37;;;;;;;13.93;6.28;;;;;;;14.28;100.00;156108.81;5011250;28;20044;-74
2022/10/23 10:51:37;;;;;;;10.13;5.25;;;;;;;14.41;100.00;156142.28;5050065;28;20053;-74
2022/10/23 10:54:21;;;;;;;16.70;5.60;;;;;;;14.43;100.00;156147.44;5027942;28;20037;-74
2022/10/23 10:56:47;;;;;;;10.27;5.35;;;;;;;14.53;100.00;156173.13;5045802;28;20486;-74
2022/10/23 10:59:21;;;;;;;11.52;5.25;;;;;;;14.50;100.00;156165.41;5028294;28;20711;-73
2022/10/23 11:02:22;;;;;;;10.18;4.25;;;;;;;14.65;100.00;156201.47;5026031;28;20049;-73
2022/10/23 11:04:56;;;;;;;10.20;4.20;;;;;;;14.73;100.00;156223.34;5014403;28;20048;-74
2022/10/23 11:07:29;;;;;;;12.75;3.70;;;;;;;14.80;100.00;156240.06;5041914;28;20391;-75
2022/10/23 11:09:59;;;;;;;9.57;4.47;;;;;;;14.76;100.00;156231.03;5025863;28;20033;-74
2022/10/23 11:12:27;;;;;;;10.98;4.78;;;;;;;14.82;100.00;156243.91;5027416;28;20036;-75
2022/10/23 11:14:53;;;;;;;13.13;4.75;;;;;;;14.88;100.00;156260.66;5038729;28;20045;-74
2022/10/23 11:17:37;;;;;;;11.23;5.10;;;;;;;14.94;100.00;156276.09;5062029;28;20033;-74
2022/10/23 11:20:21;;;;;;;12.70;5.15;;;;;;;14.96;100.00;156279.97;5035320;28;20497;-74
2022/10/23 11:22:59;;;;;;;9.00;4.82;;;;;;;14.98;100.00;156285.09;5041741;28;20037;-75
2022/10/23 11:25:42;;;;;;;8.55;5.35;;;;;;;14.97;100.00;156283.81;5040300;28;20385;-74
2022/10/23 11:28:27;;;;;;;14.05;5.00;;;;;;;15.10;100.00;156314.69;5026553;28;20092;-75
2022/10/23 11:31:05;;;;;;;11.35;5.25;;;;;;;15.11;100.00;156318.53;5039129;28;20756;-75
2022/10/23 11:34:05;;;;;;;10.40;5.03;;;;;;;15.11;100.00;156317.28;5043197;28;20517;-74
2022/10/23 11:36:43;;;;;;;13.27;5.10;;;;;;;15.21;100.00;156342.97;5015955;28;20041;-72
2022/10/23 11:39:21;;;;;;;13.50;5.38;;;;;;;15.25;100.00;156352.00;5030342;28;20041;-74
2022/10/23 11:41:56;;;;;;;11.07;5.70;;;;;;;15.37;100.00;156382.88;5045608;28;20073;-75
2022/10/23 11:44:43;;;;;;;9.45;4.88;;;;;;;15.32;100.00;156370.00;5063703;28;21175;-75
2022/10/23 11:47:25;;;;;;;15.30;7.72;;;;;;;15.29;100.00;156362.28;5048251;28;20574;-73
2022/10/23 11:50:14;;;;;;;12.45;5.78;;;;;;;15.45;100.00;156403.47;5049128;28;20052;-74
2022/10/23 11:53:09;;;;;;;14.48;6.38;;;;;;;15.46;100.00;156404.72;5013166;28;20557;-74
2022/10/23 11:55:35;;;;;;;9.77;4.72;;;;;;;15.54;100.00;156426.63;5024986;28;20124;-76
2022/10/23 11:58:22;;;;;;;12.80;4.78;;;;;;;15.58;100.00;156436.91;5028965;28;20962;-74